Time;durP1;ratioP1;P1;durP2;ratioP2;P2;SDS_P1;SDS_P2;PMS_P1;PMS_P2;Temp;Humidity;BMP_temperature;BMP_pressure;BME280_temperature;BME280_humidity;BME280_pressure;Samples;Min_cycle;Max_cycle;Signal;HPM_P1;HPM_P2
2023/10/05 00:04:41;;;;;;;;;5.00;5.00;;;;;10.17;99.85;100492.69;6283869;20;2748232;-37
2023/10/05 00:07:22;;;;;;;;;5.00;5.00;;;;;9.94;98.79;100495.56;6299686;20;1810833;-38
2023/10/05 00:09:51;;;;;;;;;8.00;6.00;;;;;9.20;100.00;100493.47;6315888;20;2739922;-38
2023/10/05 00:12:22;;;;;;;;;5.00;5.00;;;;;8.72;100.00;100482.06;6292850;20;2741960;-39
2023/10/05 00:15:14;;;;;;;;;6.00;4.50;;;;;8.63;100.00;100485.13;6285937;20;2741933;-38
2023/10/05 00:17:48;;;;;;;;;5.29;4.00;;;;;9.37;99.23;100488.25;6322855;20;1793608;-38
2023/10/05 00:20:21;;;;;;;;;6.00;5.00;;;;;9.21;98.14;100496.06;6314686;20;2745117;-38
2023/10/05 00:22:51;;;;;;;;;5.50;3.50;;;;;9.11;97.85;100488.50;6282142;20;2736842;-38
2023/10/05 00:25:23;;;;;;;;;5.00;5.00;;;;;9.19;97.82;100495.28;6280988;20;2736776;-38
2023/10/05 00:27:54;;;;;;;;;6.00;5.00;;;;;9.30;96.78;100486.78;6283134;20;2748190;-38
2023/10/05 00:30:22;;;;;;;;;8.00;7.00;;;;;9.10;98.56;100494.81;6283645;20;2745134;-38
2023/10/05 00:32:56;;;;;;;;;8.00;6.50;;;;;8.77;99.37;100485.44;6282328;20;2741939;-38
2023/10/05 00:35:28;;;;;;;;;6.00;5.00;;;;;8.99;100.00;100496.13;6280854;20;2752549;-38
2023/10/05 00:38:04;;;;;;;;;6.00;6.00;;;;;8.95;99.77;100509.69;6284191;20;2734649;-37
2023/10/05 00:40:42;;;;;;;;;5.00;5.00;;;;;8.64;100.00;100505.63;6280853;20;2748244;-38
2023/10/05 00:43:24;;;;;;;;;6.00;4.00;;;;;8.78;100.00;100502.38;6282402;20;2748258;-38
2023/10/05 00:45:59;;;;;;;;;7.00;6.00;;;;;9.40;100.00;100506.88;6289526;20;2737854;-38
2023/10/05 00:48:34;;;;;;;;;7.00;6.00;;;;;9.43;100.00;100500.53;6321528;20;2749243;-38
2023/10/05 00:51:12;;;;;;;;;5.00;5.00;;;;;9.42;99.83;100510.34;6286863;20;2743021;-38
2023/10/05 00:53:41;;;;;;;;;6.00;5.00;;;;;9.32;100.00;100517.06;6285515;20;2748190;-38
2023/10/05 00:56:12;;;;;;;;;7.00;7.00;;;;;9.15;100.00;100511.56;6283695;20;2746310;-38
2023/10/05 00:58:44;;;;;;;;;5.00;5.00;;;;;8.95;100.00;100515.94;6286055;20;2748298;-38
2023/10/05 01:01:21;;;;;;;;;9.00;6.00;;;;;9.52;100.00;100513.50;6286945;20;2746160;-38
2023/10/05 01:06:38;;;;;;;;;7.50;6.00;;;;;9.05;100.00;100510.19;6286007;20;2743028;-38
2023/10/05 01:09:22;;;;;;;;;6.00;5.00;;;;;8.78;100.00;100507.72;6287722;20;2744037;-38
2023/10/05 01:12:11;;;;;;;;;9.00;6.50;;;;;8.75;100.00;100505.19;6288844;20;2734714;-38
2023/10/05 01:14:50;;;;;;;;;8.00;6.00;;;;;9.01;100.00;100507.66;6289262;20;2741008;-38
2023/10/05 01:17:28;;;;;;;;;7.00;5.50;;;;;8.97;100.00;100506.03;6316473;20;2739913;-38
2023/10/05 01:20:08;;;;;;;;;7.00;5.00;;;;;8.79;100.00;100505.00;6291215;20;2732586;-38
2023/10/05 01:22:39;;;;;;;;;5.00;5.00;;;;;9.21;100.00;100495.19;6300907;20;1813166;-38
2023/10/05 01:25:15;;;;;;;;;4.50;4.50;;;;;9.42;100.00;100502.31;6320737;20;2743115;-38
2023/10/05 01:27:52;;;;;;;;;5.50;4.00;;;;;9.32;100.00;100498.31;6284797;20;2752366;-38
2023/10/05 01:30:21;;;;;;;;;6.00;5.00;;;;;9.04;100.00;100505.78;6286829;20;2747220;-38
2023/10/05 01:32:49;;;;;;;;;5.50;5.00;;;;;8.82;100.00;100495.97;6286678;20;2745150;-37
2023/10/05 01:35:18;;;;;;;;;5.00;5.00;;;;;8.95;100.00;100489.16;6285258;20;2747251;-38
2023/10/05 01:37:53;;;;;;;;;6.00;6.00;;;;;8.78;100.00;100491.66;6325456;20;2477397;-38
2023/10/05 01:40:25;;;;;;;;;6.50;5.00;;;;;8.83;100.00;100492.34;6314590;20;2742965;-38
2023/10/05 01:42:54;;;;;;;;;4.00;4.00;;;;;9.21;100.00;100500.56;6286957;20;2745084;-38
2023/10/05 01:45:25;;;;;;;;;8.00;8.00;;;;;9.05;100.00;100496.78;6284199;20;2736186;-39
2023/10/05 01:47:54;;;;;;;;;8.00;8.00;;;;;9.00;100.00;100491.63;6280347;20;2748188;-40
2023/10/05 01:50:27;;;;;;;;;8.00;6.00;;;;;8.95;100.00;100490.94;6282747;20;2744030;-38
2023/10/05 01:53:01;;;;;;;;;5.00;5.00;;;;;8.89;100.00;100486.72;6280881;20;2745605;-38
2023/10/05 01:55:34;;;;;;;;;6.00;6.00;;;;;8.95;100.00;100491.84;6278694;20;2750278;-38
2023/10/05 01:58:05;;;;;;;;;7.00;5.00;;;;;9.23;100.00;100487.97;6282297;20;2741922;-39
2023/10/05 02:00:39;;;;;;;;;5.00;5.00;;;;;8.83;100.00;100488.81;6287238;20;2748284;-38
2023/10/05 02:03:08;;;;;;;;;6.50;4.00;;;;;8.94;100.00;100490.09;6282355;20;2752442;-38
2023/10/05 02:05:36;;;;;;;;;7.00;6.50;;;;;9.18;100.00;100492.66;6286075;20;2735840;-38
2023/10/05 02:08:06;;;;;;;;;6.25;4.75;;;;;8.99;100.00;100493.44;6333514;20;1817088;-37
2023/10/05 02:10:39;;;;;;;;;6.00;6.00;;;;;9.15;100.00;100487.44;6333416;20;1801210;-37
2023/10/05 02:13:12;;;;;;;;;6.50;5.50;;;;;8.74;100.00;100487.34;6316746;20;2743025;-37
2023/10/05 02:15:47;;;;;;;;;6.00;6.00;;;;;8.31;100.00;100491.72;6315637;20;2736739;-37
2023/10/05 02:18:24;;;;;;;;;7.00;7.00;;;;;9.15;100.00;100490.13;6286843;20;2740991;-37
2023/10/05 02:21:07;;;;;;;;;7.83;5.83;;;;;8.48;100.00;100499.16;6327460;20;1806528;-37
2023/10/05 02:23:41;;;;;;;;;6.00;6.00;;;;;8.18;100.00;100494.00;6287477;20;2735701;-37
2023/10/05 02:26:23;;;;;;;;;9.50;8.50;;;;;8.46;100.00;100496.50;6283125;20;2754446;-37
2023/10/05 02:28:52;;;;;;;;;9.50;9.50;;;;;8.62;100.00;100490.56;6286676;20;2769074;-37
2023/10/05 02:31:20;;;;;;;;;7.50;7.50;;;;;9.02;100.00;100492.44;6287330;20;2736889;-37
2023/10/05 02:33:52;;;;;;;;;10.43;7.71;;;;;8.15;100.00;100494.13;6357299;20;1804443;-37
2023/10/05 02:36:30;;;;;;;;;8.33;8.33;;;;;8.23;100.00;100493.84;6356156;20;1808664;-38
2023/10/05 02:39:01;;;;;;;;;7.00;7.00;;;;;7.59;100.00;100500.69;6303722;20;1817068;-37
2023/10/05 02:41:38;;;;;;;;;6.43;4.86;;;;;7.45;100.00;100495.84;6357289;20;1808661;-38
2023/10/05 02:44:28;;;;;;;;;12.00;7.00;;;;;7.32;100.00;100483.84;6313584;20;2766946;-37
2023/10/05 02:46:59;;;;;;;;;6.50;6.00;;;;;7.24;100.00;100486.78;6301118;20;1803423;-38
2023/10/05 02:49:28;;;;;;;;;4.75;4.75;;;;;7.82;100.00;100486.47;6333135;20;1818262;-37
2023/10/05 02:51:56;;;;;;;;;4.00;3.00;;;;;8.23;100.00;100481.31;6317335;20;2735768;-37
2023/10/05 02:54:27;;;;;;;;;5.50;5.50;;;;;7.79;100.00;100485.69;6284042;20;2728418;-37
2023/10/05 02:56:55;;;;;;;;;4.00;4.00;;;;;7.64;100.00;100481.81;6312354;20;2747139;-37
2023/10/05 02:59:26;;;;;;;;;6.00;4.50;;;;;7.64;100.00;100485.34;6285973;20;2749290;-38
2023/10/05 03:02:00;;;;;;;;;6.50;5.00;;;;;7.50;100.00;100471.59;6282362;20;2746093;-37
2023/10/05 03:04:44;;;;;;;;;5.00;5.00;;;;;7.44;100.00;100467.34;6283987;20;2744080;-37
2023/10/05 03:07:18;;;;;;;;;9.00;5.50;;;;;7.60;100.00;100473.00;6284938;20;2747173;-37
2023/10/05 03:09:48;;;;;;;;;5.00;5.00;;;;;7.91;100.00;100467.41;6286353;20;2750263;-37
2023/10/05 03:12:20;;;;;;;;;4.00;4.00;;;;;7.28;100.00;100459.97;6283855;20;2753533;-38
2023/10/05 03:14:50;;;;;;;;;6.00;4.50;;;;;8.25;100.00;100470.59;6284819;20;2745547;-37
2023/10/05 03:17:20;;;;;;;;;5.00;5.00;;;;;7.69;100.00;100471.81;6283828;20;2732701;-38
2023/10/05 03:19:52;;;;;;;;;5.25;4.00;;;;;7.92;100.00;100462.91;6335197;20;1813954;-37
2023/10/05 03:22:23;;;;;;;;;7.00;6.00;;;;;8.25;100.00;100465.22;6331004;20;1814984;-37
2023/10/05 03:24:53;;;;;;;;;6.00;6.00;;;;;8.24;100.00;100468.81;6332070;20;1814007;-37
2023/10/05 03:27:23;;;;;;;;;7.50;6.50;;;;;7.87;100.00;100470.25;6333283;20;1805658;-37
2023/10/05 03:29:52;;;;;;;;;3.50;3.50;;;;;7.73;100.00;100467.22;6314826;20;2750334;-37
2023/10/05 03:32:20;;;;;;;;;4.50;4.50;;;;;7.89;100.00;100471.06;6283786;20;2747180;-37
2023/10/05 03:34:58;;;;;;;;;6.00;6.00;;;;;8.22;100.00;100465.34;6300344;20;1813015;-38
2023/10/05 03:37:29;;;;;;;;;9.00;6.00;;;;;7.63;100.00;100470.22;6315906;20;2746111;-37
2023/10/05 03:42:32;;;;;;;;;6.00;5.00;;;;;7.91;100.00;100463.84;6284894;20;2748183;-37
2023/10/05 03:45:04;;;;;;;;;6.25;6.25;;;;;8.25;100.00;100463.41;6300628;20;1806105;-37
2023/10/05 03:47:37;;;;;;;;;8.00;5.00;;;;;7.56;100.00;100475.88;6317548;20;2730470;-37
2023/10/05 03:50:08;;;;;;;;;6.50;5.00;;;;;8.29;100.00;100467.72;6315086;20;2746231;-37
2023/10/05 03:52:36;;;;;;;;;6.00;5.50;;;;;7.87;100.00;100464.91;6282510;20;2742026;-39
2023/10/05 03:55:10;;;;;;;;;5.00;5.00;;;;;7.41;100.00;100472.81;6284201;20;2750351;-39
2023/10/05 03:57:43;;;;;;;;;7.00;7.00;;;;;7.80;100.00;100463.41;6302059;20;1818115;-39
2023/10/05 04:00:23;;;;;;;;;7.00;7.00;;;;;7.36;100.00;100465.91;6314844;20;2737782;-37
2023/10/05 04:02:53;;;;;;;;;6.00;6.00;;;;;7.32;100.00;100469.59;6313096;20;2742997;-38
2023/10/05 04:05:22;;;;;;;;;7.00;6.00;;;;;7.69;100.00;100463.81;6282689;20;2739870;-36
2023/10/05 04:07:52;;;;;;;;;6.00;5.00;;;;;8.17;100.00;100472.69;6283345;20;2741962;-38
2023/10/05 04:10:23;;;;;;;;;4.00;4.00;;;;;7.57;100.00;100480.28;6313273;20;2744037;-39
2023/10/05 04:12:54;;;;;;;;;5.00;5.00;;;;;7.64;100.00;100488.03;6299926;20;1818884;-39
2023/10/05 04:15:23;;;;;;;;;4.00;4.00;;;;;7.67;100.00;100487.91;6313479;20;2752451;-39
2023/10/05 04:17:52;;;;;;;;;5.00;4.00;;;;;8.03;100.00;100476.78;6271162;20;2750368;-47
2023/10/05 04:20:27;;;;;;;;;7.50;5.00;;;;;7.46;100.00;100480.69;6299451;20;1813982;-47
2023/10/05 04:22:56;;;;;;;;;8.00;5.00;;;;;7.88;100.00;100480.88;6314344;20;2742347;-47
2023/10/05 04:25:27;;;;;;;;;6.33;6.33;;;;;7.91;100.00;100487.94;6356164;20;1801479;-47
2023/10/05 04:27:56;;;;;;;;;6.75;6.75;;;;;7.61;100.00;100493.47;6300827;20;1810762;-48
2023/10/05 04:30:27;;;;;;;;;7.00;7.00;;;;;8.05;100.00;100498.09;6331978;20;1805164;-48
2023/10/05 04:32:57;;;;;;;;;6.00;6.00;;;;;8.05;100.00;100498.97;6329159;20;1811888;-47
2023/10/05 04:35:28;;;;;;;;;7.00;4.00;;;;;7.91;100.00;100494.13;6313426;20;2749277;-48
2023/10/05 04:37:56;;;;;;;;;10.00;7.00;;;;;7.81;100.00;100492.72;6282039;20;2755571;-48
2023/10/05 04:40:25;;;;;;;;;10.00;7.00;;;;;7.89;100.00;100489.78;6280669;20;2763815;-47
2023/10/05 04:42:58;;;;;;;;;9.50;8.00;;;;;7.83;100.00;100490.88;6281104;20;2741972;-46
2023/10/05 04:45:27;;;;;;;;;7.50;7.00;;;;;8.26;100.00;100501.75;6312346;20;2743982;-47
2023/10/05 04:47:59;;;;;;;;;9.00;8.00;;;;;8.14;100.00;100498.63;6281062;20;2750278;-46
2023/10/05 04:50:27;;;;;;;;;6.00;6.00;;;;;8.11;100.00;100496.06;6282771;20;2744032;-47
2023/10/05 04:52:55;;;;;;;;;8.00;8.00;;;;;8.21;100.00;100501.03;6279174;20;2744058;-48
2023/10/05 04:55:35;;;;;;;;;5.75;5.75;;;;;8.28;100.00;100502.56;6297181;20;1810583;-48
2023/10/05 04:58:22;;;;;;;;;9.00;6.50;;;;;8.60;100.00;100506.66;6312996;20;2733637;-48
2023/10/05 05:01:18;;;;;;;;;8.00;8.00;;;;;8.33;100.00;100493.41;6297547;20;1812738;-48
2023/10/05 05:03:55;;;;;;;;;6.75;5.00;;;;;7.84;100.00;100497.09;6328305;20;1808785;-48
2023/10/05 05:06:27;;;;;;;;;6.00;6.00;;;;;8.45;100.00;100500.13;6311847;20;2742103;-48
2023/10/05 05:08:55;;;;;;;;;7.00;7.00;;;;;8.66;100.00;100508.22;6310709;20;2744009;-48
2023/10/05 05:11:23;;;;;;;;;7.00;7.00;;;;;8.35;100.00;100520.13;6282536;20;2748200;-47
2023/10/05 05:13:51;;;;;;;;;9.50;6.50;;;;;7.85;100.00;100525.59;6281746;20;2748174;-48
2023/10/05 05:16:19;;;;;;;;;8.50;7.00;;;;;8.52;100.00;100517.66;6277547;20;2753576;-47
2023/10/05 05:18:48;;;;;;;;;7.00;7.00;;;;;8.85;100.00;100529.78;6278563;20;2742987;-48
2023/10/05 05:21:16;;;;;;;;;10.00;9.00;;;;;8.78;100.00;100526.47;6274999;20;2774231;-48
2023/10/05 05:23:47;;;;;;;;;575.50;487.50;;;;;8.61;100.00;100526.25;6213859;20;3989935;-48
2023/10/05 05:26:16;;;;;;;;;83.33;74.67;;;;;8.82;100.00;100535.25;6276349;20;3654513;-47
2023/10/05 05:28:45;;;;;;;;;44.00;36.50;;;;;9.02;99.20;100527.25;6307126;20;2855575;-47
2023/10/05 05:31:16;;;;;;;;;52.00;41.00;;;;;8.99;98.82;100527.41;6280153;20;2855478;-48
2023/10/05 05:33:46;;;;;;;;;47.00;40.00;;;;;8.34;99.63;100539.75;6314018;20;2796092;-47
2023/10/05 05:36:16;;;;;;;;;16.33;15.33;;;;;8.61;100.00;100536.97;6278500;20;3544134;-48
2023/10/05 05:38:48;;;;;;;;;24.00;24.00;;;;;8.74;99.41;100524.84;6316016;20;3596194;-48
2023/10/05 05:41:18;;;;;;;;;21.00;21.00;;;;;8.71;100.00;100522.28;6279900;20;2844034;-48
2023/10/05 05:43:53;;;;;;;;;12.33;10.00;;;;;8.51;100.00;100510.59;6280604;20;2784680;-48
2023/10/05 05:46:21;;;;;;;;;7.50;7.50;;;;;8.97;100.00;100511.38;6312814;20;2739872;-47
2023/10/05 05:48:52;;;;;;;;;39.50;36.50;;;;;9.02;99.04;100506.69;6281810;20;2841966;-47
2023/10/05 05:51:23;;;;;;;;;20.00;17.00;;;;;9.49;97.65;100515.47;6281504;20;2500280;-48
2023/10/05 05:53:52;;;;;;;;;17.67;14.33;;;;;9.94;96.03;100525.94;6281504;20;3546137;-47
2023/10/05 05:56:25;;;;;;;;;14.00;14.00;;;;;11.27;90.67;100533.91;6310994;20;3518084;-47
2023/10/05 05:58:53;;;;;;;;;8.00;8.00;;;;;12.57;84.14;100524.28;6316125;20;2746215;-47
2023/10/05 06:01:22;;;;;;;;;10.00;10.00;;;;;11.67;85.43;100531.88;6304201;20;2794028;-37
2023/10/05 06:03:51;;;;;;;;;10.00;10.00;;;;;12.36;84.50;100530.88;6281742;20;2790928;-38
2023/10/05 06:06:21;;;;;;;;;9.20;8.00;;;;;11.17;88.46;100530.84;6308413;20;2748207;-37
2023/10/05 06:08:50;;;;;;;;;9.60;9.60;;;;;10.51;91.46;100523.34;6340086;20;2782661;-38
2023/10/05 06:11:19;;;;;;;;;7.00;7.00;;;;;11.26;91.51;100529.50;6284133;20;2734696;-38
2023/10/05 06:13:47;;;;;;;;;10.50;9.00;;;;;10.45;93.50;100528.97;6282945;20;2778404;-41
2023/10/05 06:16:16;;;;;;;;;10.67;9.00;;;;;11.76;90.25;100520.63;6279614;20;2765945;-39
2023/10/05 06:18:44;;;;;;;;;10.33;10.33;;;;;12.26;87.16;100523.28;6312309;20;2792030;-38
2023/10/05 06:21:12;;;;;;;;;8.00;7.00;;;;;11.92;85.91;100526.94;6320229;20;2750407;-38
2023/10/05 06:23:40;;;;;;;;;7.00;7.00;;;;;12.38;86.89;100527.13;6282774;20;2730525;-38
2023/10/05 06:26:08;;;;;;;;;10.00;8.00;;;;;12.89;83.61;100525.13;6283845;20;2775319;-38
2023/10/05 06:28:37;;;;;;;;;16.00;13.33;;;;;12.62;83.34;100532.97;6282405;20;3535912;-38
2023/10/05 06:31:09;;;;;;;;;16.33;16.33;;;;;12.81;82.24;100526.53;6279907;20;3562737;-37
2023/10/05 06:33:42;;;;;;;;;20.00;19.00;;;;;13.05;83.97;100532.31;6313068;20;2835706;-39
2023/10/05 06:36:10;;;;;;;;;17.50;15.50;;;;;13.42;82.61;100532.88;6281216;20;2825358;-39
2023/10/05 06:38:39;;;;;;;;;15.00;15.00;;;;;13.52;81.65;100517.88;6283763;20;2496171;-39
2023/10/05 06:41:07;;;;;;;;;15.00;13.50;;;;;13.34;82.17;100507.22;6283487;20;2492050;-39
2023/10/05 06:43:35;;;;;;;;;14.50;13.00;;;;;14.03;79.68;100507.53;6281369;20;2802364;-39
2023/10/05 06:46:09;;;;;;;;;17.50;16.00;;;;;14.53;78.76;100503.44;6277070;20;2485800;-39
2023/10/05 06:48:40;;;;;;;;;15.00;14.00;;;;;13.69;79.47;100509.66;6283479;20;2812902;-41
2023/10/05 06:51:09;;;;;;;;;16.00;14.00;;;;;15.28;76.32;100512.00;6276776;20;3544392;-39
2023/10/05 06:53:37;;;;;;;;;21.00;21.00;;;;;13.57;80.22;100516.63;6306371;20;2496105;-40
2023/10/05 06:56:06;;;;;;;;;16.67;16.67;;;;;13.66;80.99;100520.59;6281566;20;3558582;-39
2023/10/05 06:58:35;;;;;;;;;18.00;17.33;;;;;14.18;78.92;100522.75;6317809;20;3556523;-39
2023/10/05 07:01:04;;;;;;;;;18.67;18.67;;;;;15.74;73.61;100516.09;6313519;20;3557707;-38
2023/10/05 07:03:33;;;;;;;;;20.00;15.33;;;;;15.01;75.01;100527.38;6316630;20;3566927;-40
2023/10/05 07:06:04;;;;;;;;;10.67;10.67;;;;;15.81;71.99;100525.53;6278332;20;3515946;-40
2023/10/05 07:08:35;;;;;;;;;10.00;9.00;;;;;15.72;71.88;100523.50;6317987;20;2764008;-41
2023/10/05 07:11:06;;;;;;;;;10.33;10.33;;;;;16.14;70.88;100526.81;6283386;20;2794067;-41
2023/10/05 07:13:34;;;;;;;;;10.00;10.00;;;;;16.64;69.53;100533.13;6312215;20;2798198;-39
2023/10/05 07:16:05;;;;;;;;;11.40;10.20;;;;;16.48;69.97;100537.94;6305494;20;2798223;-39
2023/10/05 07:18:36;;;;;;;;;8.00;8.00;;;;;16.46;69.71;100547.06;6284017;20;2750333;-40
2023/10/05 07:21:08;;;;;;;;;9.60;8.20;;;;;16.85;68.15;100531.63;6310580;20;2778440;-39
2023/10/05 07:23:37;;;;;;;;;7.00;7.00;;;;;16.02;71.34;100529.44;6287175;20;2749255;-41
2023/10/05 07:26:07;;;;;;;;;10.00;8.33;;;;;15.83;72.74;100518.19;6282922;20;2760843;-39
2023/10/05 07:28:35;;;;;;;;;6.50;6.00;;;;;16.52;70.25;100528.63;6315071;20;2737815;-39
2023/10/05 07:31:07;;;;;;;;;7.00;7.00;;;;;16.66;69.44;100518.50;6329677;20;3445043;-39
2023/10/05 07:33:35;;;;;;;;;5.00;5.00;;;;;17.23;66.67;100514.28;6324525;20;2623231;-39
2023/10/05 07:36:06;;;;;;;;;7.60;5.40;;;;;17.90;63.76;100516.34;6318871;20;2745100;-39
2023/10/05 07:38:37;;;;;;;;;4.00;4.00;;;;;17.16;64.45;100517.56;6337695;20;2750287;-45
2023/10/05 07:41:08;;;;;;;;;5.25;4.75;;;;;17.96;61.76;100528.63;6340782;20;2634716;-39
2023/10/05 07:43:36;;;;;;;;;5.00;4.00;;;;;17.19;63.00;100523.63;6317167;20;2749255;-39
2023/10/05 07:46:06;;;;;;;;;4.00;4.00;;;;;17.48;63.11;100523.25;6285493;20;2748244;-41
2023/10/05 07:48:36;;;;;;;;;4.67;4.67;;;;;17.79;62.31;100529.91;6289227;20;2752391;-39
2023/10/05 07:51:07;;;;;;;;;3.33;3.00;;;;;17.82;61.13;100532.41;6316554;20;2756587;-39
2023/10/05 07:53:36;;;;;;;;;3.33;3.00;;;;;17.51;62.48;100529.34;6314789;20;2741991;-39
2023/10/05 07:56:04;;;;;;;;;3.67;3.67;;;;;17.97;61.58;100530.34;6316178;20;2753451;-40
2023/10/05 07:58:33;;;;;;;;;6.00;5.00;;;;;18.35;61.26;100537.28;6318863;20;2632717;-39
2023/10/05 08:01:03;;;;;;;;;6.60;6.60;;;;;18.64;59.09;100532.19;6341565;20;2743051;-39
2023/10/05 08:03:33;;;;;;;;;4.33;2.67;;;;;17.65;61.72;100533.69;6314882;20;2742002;-40
2023/10/05 08:06:01;;;;;;;;;2.67;2.67;;;;;18.57;58.18;100537.28;6312403;20;2735699;-39
2023/10/05 08:08:31;;;;;;;;;3.40;3.20;;;;;18.79;56.06;100527.38;6339100;20;2737831;-39
2023/10/05 08:10:59;;;;;;;;;3.67;2.00;;;;;19.15;54.90;100531.63;6312677;20;2756544;-44
2023/10/05 08:13:28;;;;;;;;;2.67;2.67;;;;;18.79;56.52;100532.81;6313518;20;2756700;-44
2023/10/05 08:15:57;;;;;;;;;2.60;2.60;;;;;18.80;56.30;100530.00;6337202;20;2731634;-41
2023/10/05 08:18:26;;;;;;;;;2.67;2.67;;;;;19.10;53.37;100531.16;6316936;20;2739973;-41
2023/10/05 08:20:54;;;;;;;;;0.67;0.67;;;;;19.24;53.21;100532.69;6316420;20;2735756;-41
2023/10/05 08:23:23;;;;;;;;;2.67;2.33;;;;;19.37;52.72;100530.66;6315837;20;2731648;-41
2023/10/05 08:25:52;;;;;;;;;6.40;5.80;;;;;19.77;49.40;100532.72;6336794;20;2748234;-42
2023/10/05 08:28:27;;;;;;;;;2.29;2.29;;;;;19.74;49.34;100539.28;6323559;20;3442996;-40
2023/10/05 08:31:05;;;;;;;;;52.00;39.33;;;;;19.16;47.39;100530.63;6314074;20;3614979;-41
2023/10/05 08:33:34;;;;;;;;;3.67;2.33;;;;;20.12;48.15;100542.44;6282899;20;2734706;-41
2023/10/05 08:36:11;;;;;;;;;2.00;1.67;;;;;18.73;50.06;100538.75;6314301;20;2750325;-41
2023/10/05 08:38:40;;;;;;;;;3.33;3.33;;;;;18.26;52.12;100540.75;6317153;20;2750323;-41
2023/10/05 08:41:27;;;;;;;;;2.60;2.20;;;;;19.33;50.16;100537.38;6357427;20;2473286;-42
2023/10/05 08:44:00;;;;;;;;;4.80;4.00;;;;;19.72;48.50;100543.16;6339270;20;2754446;-40
2023/10/05 08:46:43;;;;;;;;;4.20;3.40;;;;;19.84;49.06;100542.09;6305510;20;2748596;-41
2023/10/05 08:49:15;;;;;;;;;4.60;4.60;;;;;20.03;47.47;100535.91;6309494;20;2743604;-41
2023/10/05 08:51:44;;;;;;;;;5.00;4.00;;;;;20.21;47.91;100538.00;6312645;20;2744117;-41
2023/10/05 08:54:33;;;;;;;;;5.75;3.00;;;;;20.45;46.39;100540.41;6338461;20;2748299;-41
2023/10/05 08:57:09;;;;;;;;;4.20;3.40;;;;;20.30;46.98;100535.34;6334720;20;2742000;-41
2023/10/05 08:59:45;;;;;;;;;3.00;2.67;;;;;20.38;45.29;100540.13;6315754;20;2739940;-41
2023/10/05 09:02:21;;;;;;;;;2.60;2.60;;;;;20.67;45.97;100532.06;6338983;20;2743462;-42
2023/10/05 09:05:00;;;;;;;;;2.40;2.40;;;;;20.18;45.45;100533.69;6340047;20;2754545;-41
2023/10/05 09:07:41;;;;;;;;;5.00;2.60;;;;;20.30;45.41;100539.91;6312773;20;2739897;-42
2023/10/05 09:10:26;;;;;;;;;4.67;2.67;;;;;20.41;44.44;100533.53;6322854;20;2742092;-40
2023/10/05 09:12:58;;;;;;;;;5.00;2.40;;;;;20.07;45.50;100537.38;6343956;20;2737868;-40
2023/10/05 09:17:56;;;;;;;;;4.20;2.60;;;;;20.66;44.67;100532.19;6343209;20;2729469;-40
2023/10/05 09:20:31;;;;;;;;;2.60;1.60;;;;;20.55;45.47;100536.75;6345623;20;2741945;-40
2023/10/05 09:23:09;;;;;;;;;5.40;4.20;;;;;20.58;43.76;100521.97;6343353;20;2741964;-40
2023/10/05 09:25:45;;;;;;;;;2.60;1.80;;;;;20.72;43.48;100524.34;6342901;20;2741100;-42
2023/10/05 09:28:44;;;;;;;;;2.60;2.60;;;;;20.66;43.95;100519.41;6343867;20;2740967;-40
2023/10/05 09:31:14;;;;;;;;;4.20;2.60;;;;;21.19;43.66;100519.06;6342524;20;2756591;-44
2023/10/05 09:33:53;;;;;;;;;3.00;3.00;;;;;20.85;42.50;100520.47;6310220;20;2744074;-42
2023/10/05 09:36:25;;;;;;;;;4.00;3.00;;;;;21.03;43.18;100521.50;6341724;20;2741981;-43
2023/10/05 09:38:59;;;;;;;;;3.60;3.60;;;;;21.15;42.53;100511.34;6344063;20;2750321;-43
2023/10/05 09:41:29;;;;;;;;;1.67;1.67;;;;;20.87;42.09;100507.56;6288664;20;2744036;-41
2023/10/05 09:44:04;;;;;;;;;1.80;1.80;;;;;21.03;42.09;100513.31;6342491;20;2754452;-43
2023/10/05 09:46:35;;;;;;;;;3.00;3.00;;;;;21.23;41.57;100504.16;6306461;20;2746232;-41
2023/10/05 09:49:05;;;;;;;;;3.00;2.67;;;;;21.10;42.39;100498.09;6287271;20;2737860;-41
2023/10/05 09:51:35;;;;;;;;;4.00;4.00;;;;;21.00;42.22;100499.97;6317057;20;2750434;-40
2023/10/05 09:54:10;;;;;;;;;2.80;1.60;;;;;20.99;42.32;100498.25;6338835;20;2755488;-41
2023/10/05 09:56:41;;;;;;;;;3.20;3.20;;;;;21.24;42.19;100499.53;6309508;20;2752354;-41
2023/10/05 09:59:15;;;;;;;;;2.00;2.00;;;;;20.66;41.53;100489.41;6310509;20;2729522;-40
2023/10/05 10:01:49;;;;;;;;;2.67;2.33;;;;;20.17;43.19;100488.34;6319873;20;2737853;-40
2023/10/05 10:04:47;;;;;;;;;2.60;2.60;;;;;21.32;41.93;100491.47;6343925;20;2734680;-41
2023/10/05 10:07:22;;;;;;;;;2.60;2.60;;;;;21.61;41.47;100491.50;6339808;20;2741959;-40
2023/10/05 10:09:55;;;;;;;;;3.60;1.60;;;;;21.62;42.17;100490.50;6344072;20;2748266;-41
2023/10/05 10:12:38;;;;;;;;;1.00;1.00;;;;;21.57;42.53;100484.63;6309520;20;2739888;-39
2023/10/05 10:15:24;;;;;;;;;3.60;3.20;;;;;21.63;41.94;100485.91;6340431;20;2738832;-40
2023/10/05 10:18:14;;;;;;;;;2.50;2.50;;;;;21.76;40.77;100486.44;6343081;20;2753870;-39
2023/10/05 10:20:51;;;;;;;;;2.20;2.20;;;;;21.62;40.48;100482.31;6310392;20;2726438;-40
2023/10/05 10:23:27;;;;;;;;;3.00;3.00;;;;;21.83;39.94;100467.59;6339475;20;2746113;-40
2023/10/05 10:26:16;;;;;;;;;3.00;3.00;;;;;21.89;39.86;100472.47;6312006;20;2742086;-41
2023/10/05 10:28:56;;;;;;;;;3.40;3.40;;;;;21.89;39.70;100472.47;6340365;20;2748261;-40
2023/10/05 10:31:42;;;;;;;;;2.20;1.60;;;;;22.02;39.98;100466.66;6310758;20;2754507;-40
2023/10/05 10:34:49;;;;;;;;;4.00;2.60;;;;;22.43;39.01;100459.88;6307234;20;2735769;-40
2023/10/05 10:37:44;;;;;;;;;3.57;2.86;;;;;21.06;40.58;100455.69;6324832;20;3455492;-39
2023/10/05 10:45:43;;;;;;;;;3.00;3.00;;;;;21.62;41.74;100452.25;6310371;20;2739897;-39
2023/10/05 10:48:29;;;;;;;;;4.00;3.40;;;;;22.01;40.21;100443.94;6311315;20;2744096;-41
2023/10/05 10:51:10;;;;;;;;;2.60;2.60;;;;;21.64;40.96;100439.28;6309304;20;2737774;-41
2023/10/05 10:53:43;;;;;;;;;4.00;2.67;;;;;22.20;40.05;100428.47;6316056;20;2740918;-41
2023/10/05 10:56:27;;;;;;;;;4.60;3.60;;;;;21.95;40.10;100419.91;6338269;20;2748249;-41
2023/10/05 10:59:10;;;;;;;;;2.40;2.40;;;;;21.84;40.08;100422.81;6335989;20;2750279;-40
2023/10/05 11:01:53;;;;;;;;;0.00;0.00;;;;;21.62;40.84;100408.50;6310746;20;2729448;-42
2023/10/05 11:04:36;;;;;;;;;3.00;2.60;;;;;21.51;40.84;100408.66;6339991;20;2736817;-41
2023/10/05 11:07:22;;;;;;;;;3.20;3.20;;;;;21.29;40.92;100401.63;6306420;20;2746107;-44
2023/10/05 11:09:52;;;;;;;;;2.00;2.00;;;;;20.33;41.95;100395.09;6342052;20;2746218;-39
2023/10/05 11:12:22;;;;;;;;;1.80;1.80;;;;;20.70;42.67;100398.06;6337569;20;2749268;-39
2023/10/05 11:15:14;;;;;;;;;2.80;2.80;;;;;21.11;41.92;100382.38;6309855;20;2755506;-39
2023/10/05 11:17:45;;;;;;;;;2.00;1.40;;;;;21.97;39.67;100387.81;6307738;20;2756588;-40
2023/10/05 11:20:26;;;;;;;;;2.60;2.60;;;;;22.09;38.85;100383.88;6308713;20;2754483;-41
2023/10/05 11:23:03;;;;;;;;;6.80;2.60;;;;;22.26;37.49;100376.75;6310703;20;2753480;-40
2023/10/05 11:25:35;;;;;;;;;1.60;1.60;;;;;21.94;37.51;100373.59;6309893;20;2750395;-41
2023/10/05 11:28:08;;;;;;;;;3.40;3.40;;;;;22.47;37.99;100371.00;6306715;20;2748246;-41
2023/10/05 11:30:47;;;;;;;;;2.80;1.60;;;;;22.36;38.40;100371.22;6340758;20;2739878;-39
2023/10/05 11:33:34;;;;;;;;;2.80;2.60;;;;;22.34;37.91;100375.97;6339301;20;2738842;-39
2023/10/05 11:36:33;;;;;;;;;1.60;1.60;;;;;22.79;37.26;100372.34;6339495;20;2753519;-39
2023/10/05 11:39:04;;;;;;;;;1.00;1.00;;;;;22.73;36.79;100362.88;6308055;20;2733677;-40
2023/10/05 11:41:35;;;;;;;;;5.60;1.60;;;;;23.22;36.25;100362.44;6339530;20;2756573;-40
2023/10/05 11:44:11;;;;;;;;;2.40;1.00;;;;;23.07;36.43;100366.81;6311101;20;2754545;-44
2023/10/05 11:46:46;;;;;;;;;1.67;1.67;;;;;23.26;36.17;100363.88;6281162;20;2735683;-44
2023/10/05 11:49:16;;;;;;;;;3.20;2.40;;;;;22.44;37.67;100368.56;6342314;20;2738880;-41
2023/10/05 11:51:56;;;;;;;;;2.00;2.00;;;;;22.13;37.26;100371.59;6336179;20;2731572;-42